createdAt,value
2023-05-18T03:47:29.846Z,3.58
2023-05-18T03:49:56.558Z,4.00
2023-05-18T03:52:24.006Z,3.70
2023-05-18T03:54:51.363Z,3.88
2023-05-18T03:57:18.674Z,3.65
2023-05-18T03:59:46.034Z,3.92
2023-05-18T04:02:13.458Z,3.35
2023-05-18T04:04:45.954Z,3.75
2023-05-18T04:07:15.419Z,3.70
2023-05-18T04:09:43.853Z,3.55
2023-05-18T04:12:11.292Z,4.22
2023-05-18T04:14:38.084Z,3.58
2023-05-18T04:17:06.393Z,3.72
2023-05-18T04:19:39.372Z,3.63
2023-05-18T04:22:08.053Z,4.10
2023-05-18T04:24:35.283Z,3.60
2023-05-18T04:27:02.834Z,3.70
2023-05-18T04:29:30.070Z,3.75
2023-05-18T04:32:01.010Z,3.65
2023-05-18T04:34:28.895Z,3.85
2023-05-18T04:36:56.908Z,4.18
2023-05-18T04:39:24.038Z,3.55
2023-05-18T04:42:00.179Z,3.80
2023-05-18T04:44:32.065Z,3.75
2023-05-18T04:46:59.303Z,3.63
2023-05-18T04:49:27.954Z,3.78
2023-05-18T04:51:56.137Z,3.63
2023-05-18T04:54:24.275Z,4.00
2023-05-18T04:56:51.988Z,3.42
2023-05-18T04:59:19.032Z,4.32
2023-05-18T05:01:46.477Z,3.78
2023-05-18T05:04:13.303Z,3.45
2023-05-18T05:06:40.026Z,4.00
2023-05-18T05:09:07.246Z,3.90
2023-05-18T05:11:34.662Z,3.40
2023-05-18T05:14:02.869Z,3.60
2023-05-18T05:16:29.734Z,3.53
2023-05-18T05:18:56.819Z,3.58
2023-05-18T05:21:23.743Z,3.13
2023-05-18T05:23:50.600Z,3.63
2023-05-18T05:26:17.970Z,3.90
2023-05-18T05:28:44.648Z,3.58
2023-05-18T05:31:11.777Z,3.40
2023-05-18T05:33:38.550Z,3.38
2023-05-18T05:36:05.876Z,3.10
2023-05-18T05:38:32.765Z,3.70
2023-05-18T05:40:59.515Z,3.40
2023-05-18T05:43:26.309Z,3.88
2023-05-18T05:45:54.594Z,3.40
2023-05-18T05:48:21.494Z,3.72
2023-05-18T05:50:48.714Z,2.72
2023-05-18T05:53:19.797Z,3.63
2023-05-18T05:55:46.680Z,3.70
2023-05-18T05:58:13.810Z,3.55
2023-05-18T06:00:40.719Z,3.17
2023-05-18T06:03:08.086Z,3.63
2023-05-18T06:05:34.952Z,3.55
2023-05-18T06:08:01.744Z,3.22
2023-05-18T06:10:28.697Z,3.25
2023-05-18T06:12:55.997Z,3.58
2023-05-18T06:15:22.813Z,3.20
2023-05-18T06:17:49.664Z,3.50
2023-05-18T06:20:16.457Z,3.35
2023-05-18T06:22:43.782Z,3.30
2023-05-18T06:25:10.881Z,3.47
2023-05-18T06:27:38.025Z,3.65
2023-05-18T06:30:05.971Z,3.75
2023-05-18T06:32:32.749Z,3.80
2023-05-18T06:34:59.421Z,4.13
2023-05-18T06:37:26.163Z,4.03
2023-05-18T06:39:52.903Z,3.90
2023-05-18T06:42:19.602Z,3.92
2023-05-18T06:44:46.325Z,3.80
2023-05-18T06:47:13.034Z,3.80
2023-05-18T06:49:39.800Z,3.92
2023-05-18T06:52:07.824Z,4.05
2023-05-18T06:54:34.640Z,4.22
2023-05-18T06:57:01.650Z,3.75
2023-05-18T06:59:28.452Z,4.18
2023-05-18T07:01:55.292Z,3.80
2023-05-18T07:04:22.181Z,4.13
2023-05-18T07:06:49.126Z,4.07
2023-05-18T07:09:15.866Z,3.63
2023-05-18T07:11:42.618Z,3.90
2023-05-18T07:14:09.288Z,4.30
2023-05-18T07:16:36.053Z,5.20
2023-05-18T07:19:04.989Z,4.18
2023-05-18T07:21:31.916Z,4.53
2023-05-18T07:23:58.674Z,4.03
2023-05-18T07:26:26.198Z,4.15
2023-05-18T07:28:53.033Z,4.30
2023-05-18T07:31:21.670Z,4.25
2023-05-18T07:33:48.914Z,4.78
2023-05-18T07:36:15.694Z,4.40
2023-05-18T07:38:42.708Z,3.80
2023-05-18T07:41:09.608Z,4.05
2023-05-18T07:43:36.331Z,4.18
2023-05-18T07:46:03.118Z,3.85
2023-05-18T07:48:29.857Z,4.35
2023-05-18T07:50:56.527Z,4.10
2023-05-18T07:53:23.294Z,4.63
2023-05-18T07:55:50.303Z,4.13
2023-05-18T07:58:17.025Z,3.88
2023-05-18T08:00:44.400Z,3.67
2023-05-18T08:03:11.577Z,4.38
2023-05-18T08:05:38.441Z,3.45
2023-05-18T08:08:06.797Z,3.78
2023-05-18T08:10:34.126Z,3.50
2023-05-18T08:13:00.849Z,3.13
2023-05-18T08:15:27.572Z,3.20
2023-05-18T08:17:55.187Z,3.30
2023-05-18T08:20:22.077Z,3.10
2023-05-18T08:22:48.981Z,3.10
2023-05-18T08:25:15.721Z,3.13
2023-05-18T08:27:42.590Z,3.28
2023-05-18T08:30:10.062Z,2.75
2023-05-18T08:32:37.346Z,3.22
2023-05-18T08:35:05.910Z,3.03
2023-05-18T08:37:32.745Z,2.55
2023-05-18T08:40:02.380Z,2.55
2023-05-18T08:42:50.361Z,3.20
2023-05-18T08:45:40.504Z,2.67
2023-05-18T08:48:09.260Z,3.33
2023-05-18T08:50:37.894Z,2.72
2023-05-18T08:53:06.665Z,2.53
2023-05-18T08:55:39.398Z,2.60
2023-05-18T08:58:09.198Z,2.90
2023-05-18T09:00:36.963Z,2.53
2023-05-18T09:03:05.830Z,2.80
2023-05-18T09:05:33.415Z,2.50
2023-05-18T09:08:00.932Z,2.78
2023-05-18T09:10:28.443Z,2.53
2023-05-18T09:12:56.837Z,2.72
2023-05-18T09:15:25.420Z,2.25
2023-05-18T09:17:52.499Z,2.58
2023-05-18T09:20:20.665Z,2.47
2023-05-18T09:22:51.504Z,2.03
2023-05-18T09:25:18.545Z,2.40
2023-05-18T09:27:46.257Z,2.58
2023-05-18T09:30:13.279Z,2.83
2023-05-18T09:32:40.121Z,2.85
2023-05-18T09:35:08.241Z,2.67
2023-05-18T09:37:35.932Z,2.30
2023-05-18T09:40:05.455Z,2.75
2023-05-18T09:42:41.016Z,2.60
2023-05-18T09:45:23.559Z,2.53
2023-05-18T09:47:51.347Z,2.50
2023-05-18T09:50:25.177Z,2.30
2023-05-18T09:52:52.175Z,2.72
2023-05-18T09:55:19.966Z,2.60
2023-05-18T09:57:48.320Z,2.65
2023-05-18T10:00:17.018Z,2.00
2023-05-18T10:02:48.988Z,2.42
2023-05-18T10:05:20.385Z,2.50
2023-05-18T10:07:47.275Z,2.28
2023-05-18T10:10:18.616Z,2.80
2023-05-18T10:12:45.348Z,2.58
2023-05-18T10:15:16.841Z,2.35
2023-05-18T10:17:45.289Z,3.38
2023-05-18T10:20:21.270Z,2.70
2023-05-18T10:22:49.023Z,2.60
2023-05-18T10:25:19.936Z,2.38
2023-05-18T10:27:57.536Z,2.90
2023-05-18T10:30:24.381Z,2.53
2023-05-18T10:32:52.460Z,2.63
2023-05-18T10:35:19.590Z,2.50
2023-05-18T10:37:48.035Z,2.53
2023-05-18T10:40:15.809Z,2.65
2023-05-18T10:42:43.448Z,2.38
2023-05-18T10:45:11.081Z,2.50
2023-05-18T10:47:42.435Z,2.10
2023-05-18T10:50:10.070Z,2.15
2023-05-18T10:52:41.360Z,2.47
2023-05-18T10:55:08.807Z,2.55
2023-05-18T10:57:58.337Z,2.50
2023-05-18T11:00:25.504Z,2.75
2023-05-18T11:02:53.461Z,2.10
2023-05-18T11:05:26.809Z,2.13
2023-05-18T11:08:05.537Z,2.20
2023-05-18T11:10:47.935Z,2.53
2023-05-18T11:13:15.407Z,2.78
2023-05-18T11:15:54.412Z,2.13
2023-05-18T11:18:36.268Z,2.97
2023-05-18T11:21:03.273Z,2.42
2023-05-18T11:23:33.216Z,2.08
2023-05-18T11:26:03.053Z,2.00
2023-05-18T11:28:29.749Z,2.05
2023-05-18T11:30:56.547Z,2.47
2023-05-18T11:33:30.635Z,2.33
2023-05-18T11:36:14.501Z,2.63
2023-05-18T11:41:41.767Z,2.75
2023-05-18T11:44:15.384Z,2.25
2023-05-18T11:49:24.948Z,2.20
2023-05-18T11:51:58.786Z,2.10
2023-05-18T11:54:26.542Z,2.28
2023-05-18T11:56:53.623Z,2.10
2023-05-18T11:59:53.879Z,2.83
2023-05-18T12:02:25.246Z,2.38
2023-05-18T12:04:53.874Z,2.25
2023-05-18T12:07:21.675Z,2.25
2023-05-18T12:09:48.895Z,1.90
2023-05-18T12:12:20.028Z,3.10
2023-05-18T12:14:54.140Z,2.13
2023-05-18T12:17:22.110Z,2.35
2023-05-18T12:19:49.370Z,2.20
2023-05-18T12:22:16.483Z,2.30
2023-05-18T12:24:44.217Z,1.80
2023-05-18T12:27:12.177Z,2.20
2023-05-18T12:29:40.339Z,2.00
2023-05-18T12:32:12.603Z,1.92
2023-05-18T12:34:39.741Z,2.33
2023-05-18T12:37:07.734Z,2.33
2023-05-18T12:39:35.147Z,1.90
2023-05-18T12:42:15.240Z,2.10
2023-05-18T12:44:46.100Z,1.90
2023-05-18T12:47:14.005Z,2.30
2023-05-18T12:49:42.474Z,2.00
2023-05-18T12:52:14.784Z,2.55
2023-05-18T12:54:59.647Z,2.50
2023-05-18T12:57:31.057Z,2.10
2023-05-18T12:59:58.483Z,2.40
2023-05-18T13:02:31.974Z,2.58
2023-05-18T13:07:31.666Z,1.98
2023-05-18T13:10:05.782Z,2.63
2023-05-18T13:12:56.210Z,2.25
2023-05-18T13:15:24.378Z,2.22
2023-05-18T13:18:02.920Z,2.13
2023-05-18T13:20:50.840Z,2.25
2023-05-18T13:23:22.204Z,2.10
2023-05-18T13:25:49.524Z,2.30
2023-05-18T13:28:18.739Z,2.13
2023-05-18T13:30:47.290Z,1.90
2023-05-18T13:33:14.267Z,1.80
2023-05-18T13:35:42.682Z,1.67
2023-05-18T13:38:10.835Z,1.90
2023-05-18T13:40:38.172Z,1.80
2023-05-18T13:43:08.748Z,2.28
2023-05-18T13:45:36.587Z,1.70
2023-05-18T13:48:09.453Z,2.15
2023-05-18T13:50:36.928Z,2.20
2023-05-18T13:53:03.658Z,2.50
2023-05-18T13:55:30.606Z,2.10
2023-05-18T13:57:57.715Z,2.22
2023-05-18T14:00:24.772Z,2.28
2023-05-18T14:02:53.162Z,2.15
2023-05-18T14:05:20.045Z,1.88
2023-05-18T14:07:46.883Z,2.00
2023-05-18T14:10:13.892Z,1.90
2023-05-18T14:12:42.608Z,1.73
2023-05-18T14:15:10.739Z,2.13
2023-05-18T14:17:37.670Z,1.92
2023-05-18T14:20:05.667Z,1.88
2023-05-18T14:22:32.696Z,2.25
2023-05-18T14:24:59.388Z,2.10
2023-05-18T14:27:26.238Z,1.80
2023-05-18T14:29:53.107Z,2.30
2023-05-18T14:32:22.723Z,1.63
2023-05-18T14:34:51.942Z,1.95
2023-05-18T14:37:19.557Z,2.38
2023-05-18T14:39:46.480Z,2.00
2023-05-18T14:42:13.234Z,2.28
2023-05-18T14:44:39.917Z,1.85
2023-05-18T14:47:06.886Z,2.22
2023-05-18T14:49:33.733Z,2.40
2023-05-18T14:52:00.443Z,1.98
2023-05-18T14:54:27.176Z,2.47
2023-05-18T14:56:53.959Z,2.30
2023-05-18T14:59:21.461Z,2.42
2023-05-18T15:01:48.281Z,2.45
2023-05-18T15:04:15.298Z,2.60
2023-05-18T15:06:42.128Z,2.50
2023-05-18T15:09:09.985Z,2.30
2023-05-18T15:11:36.744Z,2.03
2023-05-18T15:14:03.449Z,1.58
2023-05-18T15:16:30.250Z,2.15
2023-05-18T15:18:57.046Z,1.77
2023-05-18T15:21:24.017Z,2.38
2023-05-18T15:23:50.873Z,1.80
2023-05-18T15:26:17.661Z,1.77
2023-05-18T15:28:45.014Z,2.15
2023-05-18T15:31:11.957Z,2.47
2023-05-18T15:33:42.215Z,1.92
2023-05-18T15:36:09.456Z,2.08
2023-05-18T15:38:36.203Z,2.13
2023-05-18T15:41:02.905Z,1.80
2023-05-18T15:43:30.699Z,2.17
2023-05-18T15:45:58.254Z,1.92
2023-05-18T15:48:25.007Z,2.05
2023-05-18T15:50:51.801Z,1.77
2023-05-18T15:53:18.673Z,1.70
2023-05-18T15:55:45.620Z,1.98
2023-05-18T15:58:13.468Z,2.15
2023-05-18T16:00:40.496Z,1.80
2023-05-18T16:03:07.396Z,1.83
2023-05-18T16:05:34.179Z,1.90
2023-05-18T16:08:01.002Z,1.60
2023-05-18T16:10:27.840Z,1.85
2023-05-18T16:12:54.472Z,2.05
2023-05-18T16:15:24.392Z,1.70
2023-05-18T16:17:51.187Z,1.90
2023-05-18T16:20:18.495Z,1.80
2023-05-18T16:22:46.734Z,1.65
2023-05-18T16:25:13.563Z,1.60
2023-05-18T16:27:40.307Z,1.77
2023-05-18T16:30:07.780Z,1.65
2023-05-18T16:32:34.571Z,1.88
2023-05-18T16:35:02.138Z,1.80
2023-05-18T16:37:28.882Z,2.40
2023-05-18T16:39:55.599Z,2.20
2023-05-18T16:42:22.995Z,2.10
2023-05-18T16:44:49.770Z,1.67
2023-05-18T16:47:16.486Z,2.00
2023-05-18T16:49:45.328Z,1.90
2023-05-18T16:52:12.159Z,1.80
2023-05-18T16:54:38.881Z,2.20
2023-05-18T16:57:06.276Z,1.95
2023-05-18T16:59:34.365Z,1.50
2023-05-18T17:02:01.594Z,2.15
2023-05-18T17:04:28.426Z,1.75
2023-05-18T17:06:55.670Z,1.90
2023-05-18T17:09:22.374Z,2.13
2023-05-18T17:11:49.125Z,2.78
2023-05-18T17:14:15.806Z,2.38
2023-05-18T17:16:42.547Z,1.95
2023-05-18T17:19:09.338Z,2.20
2023-05-18T17:21:36.163Z,2.20
2023-05-18T17:24:02.905Z,2.00
2023-05-18T17:26:33.292Z,2.28
2023-05-18T17:29:00.180Z,1.90
2023-05-18T17:31:27.083Z,2.03
2023-05-18T17:33:54.553Z,2.20
2023-05-18T17:36:21.271Z,2.08
2023-05-18T17:38:48.070Z,2.15
2023-05-18T17:41:15.011Z,2.17
2023-05-18T17:43:41.686Z,2.10
2023-05-18T17:46:08.456Z,2.20
2023-05-18T17:48:35.148Z,2.60
2023-05-18T17:51:01.810Z,1.88
2023-05-18T17:53:28.462Z,2.42
2023-05-18T17:55:55.163Z,2.20
2023-05-18T17:58:21.836Z,2.38
2023-05-18T18:00:48.543Z,2.22
2023-05-18T18:03:15.323Z,2.65
2023-05-18T18:05:42.166Z,2.47
2023-05-18T18:08:08.912Z,2.60
2023-05-18T18:10:35.688Z,2.28
2023-05-18T18:13:02.375Z,2.33
2023-05-18T18:15:29.131Z,2.05
2023-05-18T18:17:58.964Z,2.00
2023-05-18T18:20:25.678Z,2.20
2023-05-18T18:22:53.184Z,2.00
2023-05-18T18:25:20.002Z,2.25
2023-05-18T18:27:46.671Z,1.95
2023-05-18T18:30:14.031Z,2.00
2023-05-18T18:32:40.733Z,2.53
2023-05-18T18:35:08.177Z,2.30
2023-05-18T18:37:34.838Z,2.20
2023-05-18T18:40:01.573Z,2.90
2023-05-18T18:42:28.291Z,2.30
2023-05-18T18:44:56.839Z,2.83
2023-05-18T18:47:24.014Z,2.22
2023-05-18T18:49:53.028Z,2.28
2023-05-18T18:52:19.732Z,2.65
2023-05-18T18:54:46.440Z,2.38
2023-05-18T18:57:13.161Z,2.40
2023-05-18T18:59:39.977Z,2.10
2023-05-18T19:02:06.759Z,1.98
2023-05-18T19:04:33.573Z,2.20
2023-05-18T19:07:02.895Z,2.45
2023-05-18T19:09:32.649Z,2.20
2023-05-18T19:11:59.399Z,1.98
2023-05-18T19:14:26.079Z,2.20
2023-05-18T19:16:53.055Z,2.42
2023-05-18T19:19:19.775Z,2.65
2023-05-18T19:21:46.938Z,2.13
2023-05-18T19:24:13.757Z,2.75
2023-05-18T19:26:40.553Z,2.85
2023-05-18T19:29:07.289Z,3.08
2023-05-18T19:31:35.830Z,3.03
2023-05-18T19:34:02.703Z,4.00
2023-05-18T19:36:29.429Z,3.40
2023-05-18T19:38:56.091Z,2.95
2023-05-18T19:41:24.630Z,3.08
2023-05-18T19:43:51.718Z,2.65
2023-05-18T19:46:19.368Z,2.80
2023-05-18T19:48:46.739Z,2.35
2023-05-18T19:51:13.603Z,2.65
2023-05-18T19:53:40.382Z,2.97
2023-05-18T19:56:07.165Z,3.25
2023-05-18T19:58:33.927Z,3.35
2023-05-18T20:01:00.830Z,3.50
2023-05-18T20:03:28.460Z,3.55
2023-05-18T20:05:56.279Z,3.22
2023-05-18T20:08:23.273Z,2.80
2023-05-18T20:10:50.042Z,2.72
2023-05-18T20:13:16.763Z,2.63
2023-05-18T20:15:43.657Z,2.78
2023-05-18T20:18:10.451Z,3.10
2023-05-18T20:20:37.609Z,2.72
2023-05-18T20:23:06.701Z,3.00
2023-05-18T20:25:35.148Z,3.00
2023-05-18T20:28:03.430Z,2.72
2023-05-18T20:30:30.608Z,2.67
2023-05-18T20:33:00.345Z,2.83
2023-05-18T20:35:27.080Z,3.20
2023-05-18T20:37:59.455Z,3.00
2023-05-18T20:40:27.833Z,2.70
2023-05-18T20:42:54.515Z,2.80
2023-05-18T20:45:22.682Z,2.60
2023-05-18T20:47:52.545Z,2.65
2023-05-18T20:50:21.203Z,2.40
2023-05-18T20:52:47.993Z,2.28
2023-05-18T20:55:14.812Z,2.00
2023-05-18T20:57:44.577Z,2.50
2023-05-18T21:00:13.079Z,2.72
2023-05-18T21:02:41.601Z,2.55
2023-05-18T21:05:08.776Z,2.50
2023-05-18T21:07:37.887Z,2.20
2023-05-18T21:10:04.984Z,2.67
2023-05-18T21:12:31.846Z,2.63
2023-05-18T21:14:58.592Z,2.38
2023-05-18T21:17:25.502Z,2.65
2023-05-18T21:19:52.608Z,2.30
2023-05-18T21:22:20.240Z,2.63
2023-05-18T21:24:47.032Z,2.13
2023-05-18T21:27:13.834Z,2.20
2023-05-18T21:29:40.567Z,2.38
2023-05-18T21:32:07.496Z,2.53
2023-05-18T21:34:34.319Z,2.58
2023-05-18T21:37:01.245Z,2.50
2023-05-18T21:39:27.921Z,2.72
2023-05-18T21:41:54.783Z,2.17
2023-05-18T21:44:21.443Z,2.35
2023-05-18T21:46:48.150Z,2.28
2023-05-18T21:49:14.858Z,2.38
2023-05-18T21:51:41.564Z,2.47
2023-05-18T21:54:08.316Z,2.30
2023-05-18T21:56:36.805Z,2.30
2023-05-18T21:59:03.593Z,2.58
2023-05-18T22:01:30.373Z,2.58
2023-05-18T22:03:57.136Z,2.63
2023-05-18T22:06:23.988Z,2.75
2023-05-18T22:08:51.403Z,2.35
2023-05-18T22:11:18.066Z,2.83
2023-05-18T22:13:44.771Z,2.28
2023-05-18T22:16:11.887Z,2.42
2023-05-18T22:18:38.612Z,2.25
2023-05-18T22:21:05.338Z,2.33
2023-05-18T22:23:31.957Z,2.58
2023-05-18T22:25:58.669Z,1.88
2023-05-18T22:28:25.366Z,2.28
2023-05-18T22:30:52.634Z,1.90
2023-05-18T22:33:21.032Z,2.00
2023-05-18T22:35:48.083Z,1.85
2023-05-18T22:38:15.699Z,2.17
2023-05-18T22:40:42.716Z,2.10
2023-05-18T22:43:09.358Z,1.88
2023-05-18T22:45:36.091Z,2.35
2023-05-18T22:48:02.821Z,1.90
2023-05-18T22:50:29.572Z,2.13
2023-05-18T22:52:56.276Z,2.03
2023-05-18T22:55:22.913Z,1.77
2023-05-18T22:57:49.648Z,2.33
